sensor_id;sensor_type;location;lat;lon;timestamp;P1;durP1;ratioP1;P2;durP2;ratioP2
70420;SDS011;57848;51.938;15.520;2023-05-15T00:00:06;9.17;;;4.53;;
70420;SDS011;57848;51.938;15.520;2023-05-15T00:02:37;8.77;;;4.95;;
70420;SDS011;57848;51.938;15.520;2023-05-15T00:05:04;10.18;;;5.05;;
70420;SDS011;57848;51.938;15.520;2023-05-15T00:07:30;8.70;;;4.20;;
70420;SDS011;57848;51.938;15.520;2023-05-15T00:09:56;9.57;;;5.15;;
70420;SDS011;57848;51.938;15.520;2023-05-15T00:12:21;9.90;;;4.67;;
70420;SDS011;57848;51.938;15.520;2023-05-15T00:14:46;8.37;;;4.57;;
70420;SDS011;57848;51.938;15.520;2023-05-15T00:17:12;9.07;;;4.73;;
70420;SDS011;57848;51.938;15.520;2023-05-15T00:19:37;11.67;;;4.43;;
70420;SDS011;57848;51.938;15.520;2023-05-15T00:22:03;9.65;;;4.45;;
70420;SDS011;57848;51.938;15.520;2023-05-15T00:24:28;9.13;;;4.93;;
70420;SDS011;57848;51.938;15.520;2023-05-15T00:26:54;9.23;;;4.70;;
70420;SDS011;57848;51.938;15.520;2023-05-15T00:29:19;9.13;;;4.80;;
70420;SDS011;57848;51.938;15.520;2023-05-15T00:31:44;10.20;;;4.63;;
70420;SDS011;57848;51.938;15.520;2023-05-15T00:34:10;10.00;;;4.90;;
70420;SDS011;57848;51.938;15.520;2023-05-15T00:36:36;8.68;;;4.55;;
70420;SDS011;57848;51.938;15.520;2023-05-15T00:39:01;13.00;;;5.33;;
70420;SDS011;57848;51.938;15.520;2023-05-15T00:41:27;12.27;;;5.30;;
70420;SDS011;57848;51.938;15.520;2023-05-15T00:43:57;9.30;;;5.30;;
70420;SDS011;57848;51.938;15.520;2023-05-15T00:46:24;10.48;;;5.13;;
70420;SDS011;57848;51.938;15.520;2023-05-15T00:48:51;10.05;;;4.75;;
70420;SDS011;57848;51.938;15.520;2023-05-15T00:51:17;9.77;;;5.03;;
70420;SDS011;57848;51.938;15.520;2023-05-15T00:53:43;9.43;;;4.83;;
70420;SDS011;57848;51.938;15.520;2023-05-15T00:56:08;8.93;;;5.63;;
70420;SDS011;57848;51.938;15.520;2023-05-15T00:58:36;10.38;;;5.10;;
70420;SDS011;57848;51.938;15.520;2023-05-15T01:01:02;13.00;;;5.50;;
70420;SDS011;57848;51.938;15.520;2023-05-15T01:03:28;11.57;;;5.53;;
70420;SDS011;57848;51.938;15.520;2023-05-15T01:05:53;9.85;;;5.10;;
70420;SDS011;57848;51.938;15.520;2023-05-15T01:08:34;11.43;;;5.53;;
70420;SDS011;57848;51.938;15.520;2023-05-15T01:11:06;8.98;;;5.20;;
70420;SDS011;57848;51.938;15.520;2023-05-15T01:13:32;8.80;;;4.50;;
70420;SDS011;57848;51.938;15.520;2023-05-15T01:15:58;8.45;;;4.38;;
70420;SDS011;57848;51.938;15.520;2023-05-15T01:18:23;10.10;;;5.23;;
70420;SDS011;57848;51.938;15.520;2023-05-15T01:32:51;12.57;;;6.30;;
70420;SDS011;57848;51.938;15.520;2023-05-15T01:35:21;12.27;;;6.65;;
70420;SDS011;57848;51.938;15.520;2023-05-15T01:38:02;10.53;;;6.33;;
70420;SDS011;57848;51.938;15.520;2023-05-15T01:40:54;11.77;;;6.70;;
70420;SDS011;57848;51.938;15.520;2023-05-15T01:43:25;11.27;;;6.72;;
70420;SDS011;57848;51.938;15.520;2023-05-15T01:45:53;12.45;;;6.57;;
70420;SDS011;57848;51.938;15.520;2023-05-15T01:48:21;10.43;;;6.68;;
70420;SDS011;57848;51.938;15.520;2023-05-15T01:50:46;11.97;;;6.53;;
70420;SDS011;57848;51.938;15.520;2023-05-15T01:53:14;12.38;;;6.20;;
70420;SDS011;57848;51.938;15.520;2023-05-15T01:55:43;11.90;;;6.22;;
70420;SDS011;57848;51.938;15.520;2023-05-15T01:58:09;11.40;;;6.47;;
70420;SDS011;57848;51.938;15.520;2023-05-15T02:00:35;14.53;;;6.13;;
70420;SDS011;57848;51.938;15.520;2023-05-15T02:03:02;11.93;;;6.32;;
70420;SDS011;57848;51.938;15.520;2023-05-15T02:05:29;10.07;;;5.85;;
70420;SDS011;57848;51.938;15.520;2023-05-15T02:07:55;12.13;;;5.72;;
70420;SDS011;57848;51.938;15.520;2023-05-15T02:10:21;9.63;;;4.70;;
70420;SDS011;57848;51.938;15.520;2023-05-15T02:12:46;9.18;;;4.78;;
70420;SDS011;57848;51.938;15.520;2023-05-15T02:15:14;10.00;;;4.97;;
70420;SDS011;57848;51.938;15.520;2023-05-15T02:17:41;10.55;;;5.78;;
70420;SDS011;57848;51.938;15.520;2023-05-15T02:20:06;10.67;;;5.97;;
70420;SDS011;57848;51.938;15.520;2023-05-15T02:22:32;11.43;;;6.68;;
70420;SDS011;57848;51.938;15.520;2023-05-15T02:24:58;14.60;;;6.68;;
70420;SDS011;57848;51.938;15.520;2023-05-15T02:27:25;10.97;;;6.90;;
70420;SDS011;57848;51.938;15.520;2023-05-15T02:30:05;15.60;;;7.30;;
70420;SDS011;57848;51.938;15.520;2023-05-15T02:35:46;11.05;;;6.60;;
70420;SDS011;57848;51.938;15.520;2023-05-15T02:38:23;12.50;;;6.93;;
70420;SDS011;57848;51.938;15.520;2023-05-15T02:40:52;12.20;;;6.63;;
70420;SDS011;57848;51.938;15.520;2023-05-15T02:43:20;12.38;;;6.60;;
70420;SDS011;57848;51.938;15.520;2023-05-15T02:45:46;12.35;;;6.47;;
70420;SDS011;57848;51.938;15.520;2023-05-15T02:48:12;10.63;;;6.47;;
70420;SDS011;57848;51.938;15.520;2023-05-15T02:50:39;12.88;;;7.00;;
70420;SDS011;57848;51.938;15.520;2023-05-15T02:53:06;12.30;;;7.28;;
70420;SDS011;57848;51.938;15.520;2023-05-15T02:55:33;12.68;;;6.30;;
70420;SDS011;57848;51.938;15.520;2023-05-15T02:57:59;11.57;;;7.13;;
70420;SDS011;57848;51.938;15.520;2023-05-15T03:00:26;12.20;;;6.77;;
70420;SDS011;57848;51.938;15.520;2023-05-15T03:02:51;11.95;;;7.32;;
70420;SDS011;57848;51.938;15.520;2023-05-15T03:05:17;14.03;;;8.17;;
70420;SDS011;57848;51.938;15.520;2023-05-15T03:07:42;16.37;;;9.57;;
70420;SDS011;57848;51.938;15.520;2023-05-15T03:10:08;15.67;;;9.13;;
70420;SDS011;57848;51.938;15.520;2023-05-15T03:12:33;17.27;;;11.03;;
70420;SDS011;57848;51.938;15.520;2023-05-15T03:14:59;15.93;;;10.07;;
70420;SDS011;57848;51.938;15.520;2023-05-15T03:17:25;15.30;;;9.38;;
70420;SDS011;57848;51.938;15.520;2023-05-15T03:19:51;14.73;;;9.77;;
70420;SDS011;57848;51.938;15.520;2023-05-15T03:22:16;16.13;;;9.67;;
70420;SDS011;57848;51.938;15.520;2023-05-15T03:24:42;16.90;;;10.45;;
70420;SDS011;57848;51.938;15.520;2023-05-15T03:27:07;14.97;;;9.10;;
70420;SDS011;57848;51.938;15.520;2023-05-15T03:29:32;16.33;;;9.83;;
70420;SDS011;57848;51.938;15.520;2023-05-15T03:31:58;15.33;;;10.80;;
70420;SDS011;57848;51.938;15.520;2023-05-15T03:34:23;17.97;;;10.03;;
70420;SDS011;57848;51.938;15.520;2023-05-15T03:36:48;16.13;;;9.90;;
70420;SDS011;57848;51.938;15.520;2023-05-15T03:39:14;20.50;;;10.17;;
70420;SDS011;57848;51.938;15.520;2023-05-15T03:41:39;16.50;;;10.33;;
70420;SDS011;57848;51.938;15.520;2023-05-15T03:44:05;16.47;;;10.03;;
70420;SDS011;57848;51.938;15.520;2023-05-15T03:46:30;16.07;;;10.33;;
70420;SDS011;57848;51.938;15.520;2023-05-15T03:48:55;19.60;;;10.10;;
70420;SDS011;57848;51.938;15.520;2023-05-15T03:51:21;16.63;;;9.73;;
70420;SDS011;57848;51.938;15.520;2023-05-15T03:53:49;14.88;;;10.30;;
70420;SDS011;57848;51.938;15.520;2023-05-15T03:56:14;15.20;;;10.37;;
70420;SDS011;57848;51.938;15.520;2023-05-15T03:58:40;16.47;;;10.67;;
70420;SDS011;57848;51.938;15.520;2023-05-15T04:01:05;20.70;;;10.80;;
70420;SDS011;57848;51.938;15.520;2023-05-15T04:03:31;17.05;;;10.75;;
70420;SDS011;57848;51.938;15.520;2023-05-15T04:05:57;17.83;;;10.50;;
70420;SDS011;57848;51.938;15.520;2023-05-15T04:08:22;18.17;;;10.40;;
70420;SDS011;57848;51.938;15.520;2023-05-15T04:10:47;20.57;;;10.60;;
70420;SDS011;57848;51.938;15.520;2023-05-15T04:13:13;14.53;;;9.97;;
70420;SDS011;57848;51.938;15.520;2023-05-15T04:15:38;18.37;;;9.93;;
70420;SDS011;57848;51.938;15.520;2023-05-15T04:18:04;16.97;;;10.23;;
70420;SDS011;57848;51.938;15.520;2023-05-15T04:20:29;16.95;;;12.18;;
70420;SDS011;57848;51.938;15.520;2023-05-15T04:22:55;15.00;;;10.60;;
70420;SDS011;57848;51.938;15.520;2023-05-15T04:25:20;19.03;;;10.80;;
70420;SDS011;57848;51.938;15.520;2023-05-15T04:27:46;19.27;;;10.93;;
70420;SDS011;57848;51.938;15.520;2023-05-15T04:30:11;15.77;;;11.00;;
70420;SDS011;57848;51.938;15.520;2023-05-15T04:32:37;18.17;;;11.03;;
70420;SDS011;57848;51.938;15.520;2023-05-15T04:35:04;17.17;;;11.05;;
70420;SDS011;57848;51.938;15.520;2023-05-15T04:37:30;17.27;;;11.25;;
70420;SDS011;57848;51.938;15.520;2023-05-15T04:39:55;16.83;;;11.57;;
70420;SDS011;57848;51.938;15.520;2023-05-15T04:42:21;16.90;;;10.80;;
70420;SDS011;57848;51.938;15.520;2023-05-15T04:44:47;16.27;;;10.77;;
70420;SDS011;57848;51.938;15.520;2023-05-15T04:47:12;18.83;;;11.30;;
70420;SDS011;57848;51.938;15.520;2023-05-15T04:49:38;17.13;;;11.43;;
70420;SDS011;57848;51.938;15.520;2023-05-15T04:52:05;18.10;;;11.35;;
70420;SDS011;57848;51.938;15.520;2023-05-15T04:54:30;18.57;;;11.53;;
70420;SDS011;57848;51.938;15.520;2023-05-15T04:56:55;20.20;;;12.77;;
70420;SDS011;57848;51.938;15.520;2023-05-15T04:59:21;18.75;;;11.98;;
70420;SDS011;57848;51.938;15.520;2023-05-15T05:01:47;37.37;;;26.10;;
70420;SDS011;57848;51.938;15.520;2023-05-15T05:04:12;20.67;;;14.23;;
70420;SDS011;57848;51.938;15.520;2023-05-15T05:06:38;18.45;;;14.18;;
70420;SDS011;57848;51.938;15.520;2023-05-15T05:09:03;18.97;;;12.07;;
70420;SDS011;57848;51.938;15.520;2023-05-15T05:11:29;20.87;;;12.70;;
70420;SDS011;57848;51.938;15.520;2023-05-15T05:13:54;22.53;;;15.10;;
70420;SDS011;57848;51.938;15.520;2023-05-15T05:16:19;20.27;;;14.17;;
70420;SDS011;57848;51.938;15.520;2023-05-15T05:18:45;20.27;;;12.30;;
70420;SDS011;57848;51.938;15.520;2023-05-15T05:21:10;17.40;;;11.27;;
70420;SDS011;57848;51.938;15.520;2023-05-15T05:23:35;17.95;;;11.88;;
70420;SDS011;57848;51.938;15.520;2023-05-15T05:26:01;19.00;;;13.27;;
70420;SDS011;57848;51.938;15.520;2023-05-15T05:28:26;18.20;;;11.67;;
70420;SDS011;57848;51.938;15.520;2023-05-15T05:30:52;26.23;;;19.23;;
70420;SDS011;57848;51.938;15.520;2023-05-15T05:33:17;18.23;;;12.95;;
70420;SDS011;57848;51.938;15.520;2023-05-15T05:35:42;17.57;;;11.50;;
70420;SDS011;57848;51.938;15.520;2023-05-15T05:38:08;20.67;;;13.13;;
70420;SDS011;57848;51.938;15.520;2023-05-15T05:40:33;26.23;;;16.73;;
70420;SDS011;57848;51.938;15.520;2023-05-15T05:42:59;19.83;;;13.30;;
70420;SDS011;57848;51.938;15.520;2023-05-15T05:45:28;18.98;;;12.52;;
70420;SDS011;57848;51.938;15.520;2023-05-15T05:47:54;16.98;;;11.35;;
70420;SDS011;57848;51.938;15.520;2023-05-15T05:50:22;18.53;;;13.00;;
70420;SDS011;57848;51.938;15.520;2023-05-15T05:52:48;19.67;;;12.70;;
70420;SDS011;57848;51.938;15.520;2023-05-15T05:55:13;36.78;;;23.13;;
70420;SDS011;57848;51.938;15.520;2023-05-15T05:57:39;48.07;;;29.53;;
70420;SDS011;57848;51.938;15.520;2023-05-15T06:00:05;45.63;;;28.53;;
70420;SDS011;57848;51.938;15.520;2023-05-15T06:02:35;38.58;;;23.48;;
70420;SDS011;57848;51.938;15.520;2023-05-15T06:05:02;36.55;;;25.23;;
70420;SDS011;57848;51.938;15.520;2023-05-15T06:07:27;31.50;;;23.75;;
70420;SDS011;57848;51.938;15.520;2023-05-15T06:09:53;24.13;;;17.00;;
70420;SDS011;57848;51.938;15.520;2023-05-15T06:12:18;21.60;;;14.97;;
70420;SDS011;57848;51.938;15.520;2023-05-15T06:14:44;22.63;;;15.57;;
70420;SDS011;57848;51.938;15.520;2023-05-15T06:17:10;20.45;;;14.48;;
70420;SDS011;57848;51.938;15.520;2023-05-15T06:19:35;18.83;;;13.00;;
70420;SDS011;57848;51.938;15.520;2023-05-15T06:22:01;18.77;;;12.47;;
70420;SDS011;57848;51.938;15.520;2023-05-15T06:24:26;21.17;;;15.27;;
70420;SDS011;57848;51.938;15.520;2023-05-15T06:26:51;18.73;;;13.83;;
70420;SDS011;57848;51.938;15.520;2023-05-15T06:29:17;25.93;;;19.20;;
70420;SDS011;57848;51.938;15.520;2023-05-15T06:31:42;22.10;;;14.43;;
70420;SDS011;57848;51.938;15.520;2023-05-15T06:34:08;24.73;;;14.17;;
70420;SDS011;57848;51.938;15.520;2023-05-15T06:36:33;22.27;;;13.20;;
70420;SDS011;57848;51.938;15.520;2023-05-15T06:38:59;21.08;;;13.70;;
70420;SDS011;57848;51.938;15.520;2023-05-15T06:41:24;22.23;;;13.80;;
70420;SDS011;57848;51.938;15.520;2023-05-15T06:43:50;19.77;;;13.37;;
70420;SDS011;57848;51.938;15.520;2023-05-15T06:46:15;20.87;;;12.67;;
70420;SDS011;57848;51.938;15.520;2023-05-15T06:48:43;18.45;;;11.80;;
70420;SDS011;57848;51.938;15.520;2023-05-15T06:51:08;19.48;;;13.13;;
70420;SDS011;57848;51.938;15.520;2023-05-15T06:53:34;22.27;;;13.10;;
70420;SDS011;57848;51.938;15.520;2023-05-15T06:55:59;18.37;;;13.07;;
70420;SDS011;57848;51.938;15.520;2023-05-15T06:58:25;18.88;;;12.23;;
70420;SDS011;57848;51.938;15.520;2023-05-15T07:00:50;18.70;;;13.20;;
70420;SDS011;57848;51.938;15.520;2023-05-15T07:03:15;20.47;;;12.73;;
70420;SDS011;57848;51.938;15.520;2023-05-15T07:05:41;18.30;;;13.33;;
70420;SDS011;57848;51.938;15.520;2023-05-15T07:08:07;18.87;;;11.43;;
70420;SDS011;57848;51.938;15.520;2023-05-15T07:10:32;17.63;;;12.60;;
70420;SDS011;57848;51.938;15.520;2023-05-15T07:12:57;18.50;;;11.63;;
70420;SDS011;57848;51.938;15.520;2023-05-15T07:15:23;18.23;;;12.47;;
70420;SDS011;57848;51.938;15.520;2023-05-15T07:17:48;27.70;;;13.87;;
70420;SDS011;57848;51.938;15.520;2023-05-15T07:20:13;19.42;;;12.65;;
70420;SDS011;57848;51.938;15.520;2023-05-15T07:22:38;17.47;;;12.50;;
70420;SDS011;57848;51.938;15.520;2023-05-15T07:25:04;17.43;;;11.87;;
70420;SDS011;57848;51.938;15.520;2023-05-15T07:27:30;18.58;;;12.80;;
70420;SDS011;57848;51.938;15.520;2023-05-15T07:29:56;22.90;;;13.50;;
70420;SDS011;57848;51.938;15.520;2023-05-15T07:32:21;18.90;;;13.33;;
70420;SDS011;57848;51.938;15.520;2023-05-15T07:34:46;21.03;;;13.43;;
70420;SDS011;57848;51.938;15.520;2023-05-15T07:37:12;22.05;;;13.13;;
70420;SDS011;57848;51.938;15.520;2023-05-15T07:39:37;21.53;;;13.67;;
70420;SDS011;57848;51.938;15.520;2023-05-15T07:42:02;19.67;;;13.37;;
70420;SDS011;57848;51.938;15.520;2023-05-15T07:44:28;18.17;;;12.40;;
70420;SDS011;57848;51.938;15.520;2023-05-15T07:46:54;19.27;;;12.63;;
70420;SDS011;57848;51.938;15.520;2023-05-15T07:49:19;21.38;;;14.52;;
70420;SDS011;57848;51.938;15.520;2023-05-15T07:51:44;19.93;;;14.00;;
70420;SDS011;57848;51.938;15.520;2023-05-15T07:54:10;17.47;;;12.77;;
70420;SDS011;57848;51.938;15.520;2023-05-15T07:56:35;19.10;;;13.03;;
70420;SDS011;57848;51.938;15.520;2023-05-15T07:59:01;19.17;;;12.20;;
70420;SDS011;57848;51.938;15.520;2023-05-15T08:01:27;18.03;;;11.87;;
70420;SDS011;57848;51.938;15.520;2023-05-15T08:03:52;17.30;;;12.13;;
70420;SDS011;57848;51.938;15.520;2023-05-15T08:06:17;17.10;;;11.37;;
70420;SDS011;57848;51.938;15.520;2023-05-15T08:08:43;18.13;;;12.23;;
70420;SDS011;57848;51.938;15.520;2023-05-15T08:11:08;18.90;;;13.30;;
70420;SDS011;57848;51.938;15.520;2023-05-15T08:13:33;19.17;;;12.07;;
70420;SDS011;57848;51.938;15.520;2023-05-15T08:15:59;16.53;;;11.57;;
70420;SDS011;57848;51.938;15.520;2023-05-15T08:18:24;16.93;;;12.10;;
70420;SDS011;57848;51.938;15.520;2023-05-15T08:20:49;14.60;;;10.30;;
70420;SDS011;57848;51.938;15.520;2023-05-15T08:23:16;18.00;;;10.90;;
70420;SDS011;57848;51.938;15.520;2023-05-15T08:25:41;19.65;;;12.02;;
70420;SDS011;57848;51.938;15.520;2023-05-15T08:28:07;14.77;;;10.43;;
70420;SDS011;57848;51.938;15.520;2023-05-15T08:30:32;17.33;;;11.20;;
70420;SDS011;57848;51.938;15.520;2023-05-15T08:32:58;17.77;;;12.47;;
70420;SDS011;57848;51.938;15.520;2023-05-15T08:35:23;16.55;;;10.63;;
70420;SDS011;57848;51.938;15.520;2023-05-15T08:37:48;19.37;;;12.30;;
70420;SDS011;57848;51.938;15.520;2023-05-15T08:40:14;19.07;;;12.27;;
70420;SDS011;57848;51.938;15.520;2023-05-15T08:42:43;18.73;;;13.77;;
70420;SDS011;57848;51.938;15.520;2023-05-15T08:45:12;18.80;;;12.98;;
70420;SDS011;57848;51.938;15.520;2023-05-15T08:47:38;18.90;;;13.48;;
70420;SDS011;57848;51.938;15.520;2023-05-15T08:50:05;18.98;;;13.02;;
70420;SDS011;57848;51.938;15.520;2023-05-15T08:52:39;18.50;;;11.27;;
70420;SDS011;57848;51.938;15.520;2023-05-15T08:55:09;19.17;;;10.30;;
70420;SDS011;57848;51.938;15.520;2023-05-15T08:57:35;16.10;;;9.98;;
70420;SDS011;57848;51.938;15.520;2023-05-15T09:00:01;15.27;;;9.47;;
70420;SDS011;57848;51.938;15.520;2023-05-15T09:02:38;15.90;;;10.18;;
70420;SDS011;57848;51.938;15.520;2023-05-15T09:05:05;15.32;;;11.15;;
70420;SDS011;57848;51.938;15.520;2023-05-15T09:07:31;14.57;;;8.98;;
70420;SDS011;57848;51.938;15.520;2023-05-15T09:09:57;15.07;;;9.13;;
70420;SDS011;57848;51.938;15.520;2023-05-15T09:12:24;12.95;;;8.20;;
70420;SDS011;57848;51.938;15.520;2023-05-15T09:14:50;13.25;;;8.80;;
70420;SDS011;57848;51.938;15.520;2023-05-15T09:17:16;14.23;;;8.87;;
70420;SDS011;57848;51.938;15.520;2023-05-15T09:19:41;12.73;;;7.60;;
70420;SDS011;57848;51.938;15.520;2023-05-15T09:22:17;13.23;;;8.48;;
70420;SDS011;57848;51.938;15.520;2023-05-15T09:24:48;15.05;;;8.45;;
70420;SDS011;57848;51.938;15.520;2023-05-15T09:27:17;15.17;;;8.30;;
70420;SDS011;57848;51.938;15.520;2023-05-15T09:29:43;12.98;;;7.35;;
70420;SDS011;57848;51.938;15.520;2023-05-15T09:32:11;13.27;;;7.90;;
70420;SDS011;57848;51.938;15.520;2023-05-15T09:34:41;13.18;;;8.25;;
70420;SDS011;57848;51.938;15.520;2023-05-15T09:37:08;11.23;;;7.68;;
70420;SDS011;57848;51.938;15.520;2023-05-15T09:39:42;13.83;;;8.63;;
70420;SDS011;57848;51.938;15.520;2023-05-15T09:42:09;12.65;;;8.80;;
70420;SDS011;57848;51.938;15.520;2023-05-15T09:44:39;13.27;;;8.60;;
70420;SDS011;57848;51.938;15.520;2023-05-15T09:47:10;15.55;;;7.57;;
70420;SDS011;57848;51.938;15.520;2023-05-15T09:49:37;11.73;;;8.15;;
70420;SDS011;57848;51.938;15.520;2023-05-15T09:52:02;12.27;;;7.57;;
70420;SDS011;57848;51.938;15.520;2023-05-15T09:54:31;12.68;;;7.50;;
70420;SDS011;57848;51.938;15.520;2023-05-15T09:56:57;14.17;;;6.83;;
70420;SDS011;57848;51.938;15.520;2023-05-15T09:59:32;13.80;;;7.38;;
70420;SDS011;57848;51.938;15.520;2023-05-15T10:01:57;14.33;;;7.40;;
70420;SDS011;57848;51.938;15.520;2023-05-15T10:04:22;11.33;;;6.53;;
70420;SDS011;57848;51.938;15.520;2023-05-15T10:06:48;14.20;;;6.60;;
70420;SDS011;57848;51.938;15.520;2023-05-15T10:09:13;11.50;;;6.93;;
70420;SDS011;57848;51.938;15.520;2023-05-15T10:11:45;12.63;;;6.40;;
70420;SDS011;57848;51.938;15.520;2023-05-15T10:14:19;12.32;;;7.13;;
70420;SDS011;57848;51.938;15.520;2023-05-15T10:16:46;10.50;;;6.65;;
70420;SDS011;57848;51.938;15.520;2023-05-15T10:19:12;11.10;;;6.30;;
70420;SDS011;57848;51.938;15.520;2023-05-15T10:21:38;11.63;;;6.67;;
70420;SDS011;57848;51.938;15.520;2023-05-15T10:24:06;15.48;;;7.45;;
70420;SDS011;57848;51.938;15.520;2023-05-15T10:26:34;13.18;;;6.82;;
70420;SDS011;57848;51.938;15.520;2023-05-15T10:29:04;10.43;;;6.50;;
70420;SDS011;57848;51.938;15.520;2023-05-15T10:31:32;11.20;;;6.20;;
70420;SDS011;57848;51.938;15.520;2023-05-15T10:33:58;13.77;;;6.38;;
70420;SDS011;57848;51.938;15.520;2023-05-15T10:36:24;11.75;;;6.43;;
70420;SDS011;57848;51.938;15.520;2023-05-15T10:38:50;13.88;;;6.85;;
70420;SDS011;57848;51.938;15.520;2023-05-15T10:41:16;12.27;;;7.73;;
70420;SDS011;57848;51.938;15.520;2023-05-15T10:43:45;11.75;;;6.72;;
70420;SDS011;57848;51.938;15.520;2023-05-15T10:46:12;10.93;;;6.97;;
70420;SDS011;57848;51.938;15.520;2023-05-15T10:48:39;12.80;;;7.10;;
70420;SDS011;57848;51.938;15.520;2023-05-15T10:51:04;10.70;;;6.00;;
70420;SDS011;57848;51.938;15.520;2023-05-15T10:53:38;12.07;;;6.45;;
70420;SDS011;57848;51.938;15.520;2023-05-15T10:56:04;11.60;;;6.07;;
70420;SDS011;57848;51.938;15.520;2023-05-15T10:58:29;10.80;;;6.37;;
70420;SDS011;57848;51.938;15.520;2023-05-15T11:00:55;10.70;;;5.72;;
70420;SDS011;57848;51.938;15.520;2023-05-15T11:03:34;10.67;;;6.20;;
70420;SDS011;57848;51.938;15.520;2023-05-15T11:06:07;11.80;;;6.90;;
70420;SDS011;57848;51.938;15.520;2023-05-15T11:08:34;11.17;;;5.97;;
70420;SDS011;57848;51.938;15.520;2023-05-15T11:11:00;13.00;;;6.43;;
70420;SDS011;57848;51.938;15.520;2023-05-15T11:13:26;11.73;;;6.53;;
70420;SDS011;57848;51.938;15.520;2023-05-15T11:15:52;12.35;;;6.68;;
70420;SDS011;57848;51.938;15.520;2023-05-15T11:18:18;13.17;;;7.60;;
70420;SDS011;57848;51.938;15.520;2023-05-15T11:23:19;14.55;;;6.90;;
70420;SDS011;57848;51.938;15.520;2023-05-15T11:25:46;14.48;;;6.80;;
70420;SDS011;57848;51.938;15.520;2023-05-15T11:28:20;12.55;;;7.07;;
70420;SDS011;57848;51.938;15.520;2023-05-15T11:30:49;12.30;;;7.30;;
70420;SDS011;57848;51.938;15.520;2023-05-15T11:33:15;12.77;;;7.03;;
70420;SDS011;57848;51.938;15.520;2023-05-15T11:35:44;10.83;;;6.10;;
70420;SDS011;57848;51.938;15.520;2023-05-15T11:38:21;11.45;;;7.18;;
70420;SDS011;57848;51.938;15.520;2023-05-15T11:40:52;13.80;;;7.20;;
70420;SDS011;57848;51.938;15.520;2023-05-15T11:46:03;13.63;;;7.05;;
70420;SDS011;57848;51.938;15.520;2023-05-15T11:48:30;13.13;;;6.90;;
70420;SDS011;57848;51.938;15.520;2023-05-15T11:50:57;10.88;;;6.40;;
70420;SDS011;57848;51.938;15.520;2023-05-15T11:53:25;11.18;;;6.30;;
70420;SDS011;57848;51.938;15.520;2023-05-15T11:55:51;10.73;;;5.97;;
70420;SDS011;57848;51.938;15.520;2023-05-15T11:58:18;10.77;;;6.13;;
70420;SDS011;57848;51.938;15.520;2023-05-15T12:00:46;11.77;;;5.73;;
70420;SDS011;57848;51.938;15.520;2023-05-15T12:03:16;10.95;;;6.05;;
70420;SDS011;57848;51.938;15.520;2023-05-15T12:05:43;11.52;;;5.75;;
70420;SDS011;57848;51.938;15.520;2023-05-15T12:08:11;9.60;;;4.70;;
70420;SDS011;57848;51.938;15.520;2023-05-15T12:10:44;8.95;;;5.35;;
70420;SDS011;57848;51.938;15.520;2023-05-15T12:13:13;8.32;;;4.75;;
70420;SDS011;57848;51.938;15.520;2023-05-15T12:15:41;9.10;;;4.90;;
70420;SDS011;57848;51.938;15.520;2023-05-15T12:18:08;15.83;;;4.80;;
70420;SDS011;57848;51.938;15.520;2023-05-15T12:20:34;9.73;;;4.40;;
70420;SDS011;57848;51.938;15.520;2023-05-15T12:23:01;8.32;;;4.30;;
70420;SDS011;57848;51.938;15.520;2023-05-15T12:25:28;10.43;;;4.40;;
70420;SDS011;57848;51.938;15.520;2023-05-15T12:27:54;8.47;;;4.13;;
70420;SDS011;57848;51.938;15.520;2023-05-15T12:30:20;8.60;;;4.30;;
70420;SDS011;57848;51.938;15.520;2023-05-15T12:32:45;9.47;;;4.70;;
70420;SDS011;57848;51.938;15.520;2023-05-15T12:35:12;8.57;;;5.07;;
70420;SDS011;57848;51.938;15.520;2023-05-15T12:37:37;8.43;;;4.80;;
70420;SDS011;57848;51.938;15.520;2023-05-15T12:40:04;9.43;;;4.90;;
70420;SDS011;57848;51.938;15.520;2023-05-15T12:42:37;9.65;;;5.03;;
70420;SDS011;57848;51.938;15.520;2023-05-15T12:45:17;9.88;;;5.40;;
70420;SDS011;57848;51.938;15.520;2023-05-15T12:47:44;11.88;;;5.47;;
70420;SDS011;57848;51.938;15.520;2023-05-15T12:52:39;9.83;;;6.23;;
70420;SDS011;57848;51.938;15.520;2023-05-15T12:55:04;10.95;;;5.57;;
70420;SDS011;57848;51.938;15.520;2023-05-15T12:57:30;9.57;;;5.23;;
70420;SDS011;57848;51.938;15.520;2023-05-15T12:59:55;10.77;;;5.13;;
70420;SDS011;57848;51.938;15.520;2023-05-15T13:02:21;8.70;;;5.07;;
70420;SDS011;57848;51.938;15.520;2023-05-15T13:04:46;9.73;;;4.80;;
70420;SDS011;57848;51.938;15.520;2023-05-15T13:07:15;9.27;;;4.70;;
70420;SDS011;57848;51.938;15.520;2023-05-15T13:09:41;11.73;;;5.20;;
70420;SDS011;57848;51.938;15.520;2023-05-15T13:12:07;9.80;;;5.80;;
70420;SDS011;57848;51.938;15.520;2023-05-15T13:14:32;10.30;;;5.53;;
70420;SDS011;57848;51.938;15.520;2023-05-15T13:16:59;10.40;;;5.53;;
70420;SDS011;57848;51.938;15.520;2023-05-15T13:19:28;12.27;;;5.60;;
70420;SDS011;57848;51.938;15.520;2023-05-15T13:21:55;11.63;;;5.40;;
70420;SDS011;57848;51.938;15.520;2023-05-15T13:24:20;9.50;;;5.05;;
70420;SDS011;57848;51.938;15.520;2023-05-15T13:26:46;9.43;;;5.33;;
70420;SDS011;57848;51.938;15.520;2023-05-15T13:29:11;9.63;;;4.83;;
70420;SDS011;57848;51.938;15.520;2023-05-15T13:31:36;9.20;;;5.60;;
70420;SDS011;57848;51.938;15.520;2023-05-15T13:34:02;10.73;;;5.25;;
70420;SDS011;57848;51.938;15.520;2023-05-15T13:36:27;9.67;;;5.37;;
70420;SDS011;57848;51.938;15.520;2023-05-15T13:38:53;10.53;;;5.97;;
70420;SDS011;57848;51.938;15.520;2023-05-15T13:41:18;10.93;;;5.53;;
70420;SDS011;57848;51.938;15.520;2023-05-15T13:43:43;9.70;;;5.53;;
70420;SDS011;57848;51.938;15.520;2023-05-15T13:46:09;10.90;;;5.57;;
70420;SDS011;57848;51.938;15.520;2023-05-15T13:48:34;12.00;;;6.10;;
70420;SDS011;57848;51.938;15.520;2023-05-15T13:50:59;10.03;;;6.13;;
70420;SDS011;57848;51.938;15.520;2023-05-15T13:53:24;9.33;;;5.83;;
70420;SDS011;57848;51.938;15.520;2023-05-15T13:55:50;10.10;;;5.93;;
70420;SDS011;57848;51.938;15.520;2023-05-15T13:58:15;11.93;;;6.00;;
70420;SDS011;57848;51.938;15.520;2023-05-15T14:00:41;10.97;;;6.73;;
70420;SDS011;57848;51.938;15.520;2023-05-15T14:03:07;9.52;;;5.65;;
70420;SDS011;57848;51.938;15.520;2023-05-15T14:05:33;11.10;;;5.90;;
70420;SDS011;57848;51.938;15.520;2023-05-15T14:07:58;10.30;;;5.60;;
70420;SDS011;57848;51.938;15.520;2023-05-15T14:10:24;10.00;;;6.57;;
70420;SDS011;57848;51.938;15.520;2023-05-15T14:12:50;12.93;;;6.77;;
70420;SDS011;57848;51.938;15.520;2023-05-15T14:15:15;10.80;;;6.13;;
70420;SDS011;57848;51.938;15.520;2023-05-15T14:17:40;10.27;;;6.10;;
70420;SDS011;57848;51.938;15.520;2023-05-15T14:20:07;10.20;;;6.57;;
70420;SDS011;57848;51.938;15.520;2023-05-15T14:22:36;12.15;;;6.25;;
70420;SDS011;57848;51.938;15.520;2023-05-15T14:25:03;10.60;;;6.10;;
70420;SDS011;57848;51.938;15.520;2023-05-15T14:27:29;9.93;;;5.95;;
70420;SDS011;57848;51.938;15.520;2023-05-15T14:29:55;9.77;;;5.93;;
70420;SDS011;57848;51.938;15.520;2023-05-15T14:32:23;10.57;;;4.75;;
70420;SDS011;57848;51.938;15.520;2023-05-15T14:34:49;11.05;;;5.47;;
70420;SDS011;57848;51.938;15.520;2023-05-15T14:37:15;10.03;;;5.50;;